LFPM 231000Z AUTO 05010KT 020V090 9999 NSC 00/M06 Q1016

Les avions qui composent notre flotte

Avion Robin DR400-180

Idéal pour les voyages, équipé d'un Pilote Automatique

F-GGJV


F-GGJV Planche